»·PEaware :: DAL2460 KSLC-KASE

DAL2460 :: KSLC-KASE

FLIGHT INFORMATION

Flight Status: Arrived
Operator:
Delta Air Lines
More flights by this operator :: More flights under this callsign
Pilot: Max W. (2591)
Aircraft: AIRBUS A319
(A319)
More flights by this aircraft type
Origin: KSLC Salt Lake City Intl
United States
Destination: KASE Aspen-Pitkin Co/Sardy
United States
More flights between these airports :: More routes between these airports
Route: RUGGD1 EKR TRUEL DBL
File this flight plan on PilotEdge
Remarks:
Altitude:
(Current/Filed)
29,000ft
Speed:
(Current/Filed)
450kts
Departed: 29-Oct-19 02:41 PM
Arrived: 29-Oct-19 03:46 PM
Distance/Time
Traveled:
253nm/1:05
Distance/Time
To Go:
Arrived

Flight Plot

Page will automatically refresh every two minutes.

Flight plan parsing failed; only flown route is shown


Map Options




Map Legend


Flown Route
Filed Route
Departure Airport
Arrival Airport
Navaid (VOR, NDB)
Fix

Horizontal Profiles

Position Reports

Time Latitude Longitude Heading Altitude Ground
Speed
29-Oct-19 14:14 40.788477 -111.977944 267 4236ft 0kts
29-Oct-19 14:15 40.788477 -111.977944 267 4236ft 0kts
29-Oct-19 14:16 40.788477 -111.977944 267 4236ft 0kts
29-Oct-19 14:17 40.788477 -111.977944 267 4236ft 0kts
29-Oct-19 14:18 40.788477 -111.977944 267 4236ft 0kts
29-Oct-19 14:19 40.788477 -111.977944 267 4236ft 0kts
29-Oct-19 14:20 40.788477 -111.977944 267 4236ft 0kts
29-Oct-19 14:21 40.788477 -111.977944 267 4236ft 0kts
29-Oct-19 14:22 40.788477 -111.977944 267 4236ft 0kts
29-Oct-19 14:23 40.788477 -111.977944 267 4236ft 0kts
29-Oct-19 14:24 40.788477 -111.977944 267 4236ft 0kts
29-Oct-19 14:25 40.788477 -111.977944 267 4236ft 0kts
29-Oct-19 14:26 40.788477 -111.977944 267 4236ft 0kts
29-Oct-19 14:27 40.788477 -111.977944 267 4236ft 0kts
29-Oct-19 14:28 40.788477 -111.977944 267 4236ft 0kts
29-Oct-19 14:29 40.788477 -111.977944 267 4236ft 0kts
29-Oct-19 14:30 40.788477 -111.977943 267 4236ft 0kts
29-Oct-19 14:31 40.788499 -111.977297 258 4236ft 2kts
29-Oct-19 14:32 40.788881 -111.976949 173 4236ft 0kts
29-Oct-19 14:33 40.788881 -111.976949 173 4236ft 0kts
29-Oct-19 14:34 40.789074 -111.977248 357 4236ft 6kts
29-Oct-19 14:35 40.790428 -111.977143 351 4236ft 4kts
29-Oct-19 14:36 40.792655 -111.977370 353 4236ft 10kts
29-Oct-19 14:37 40.795845 -111.977764 352 4236ft 11kts
29-Oct-19 14:38 40.799755 -111.978245 357 4236ft 19kts
29-Oct-19 14:39 40.805704 -111.978469 354 4236ft 25kts
29-Oct-19 14:40 40.793240 -111.975304 175 4236ft 153kts
29-Oct-19 14:41 40.750961 -111.989886 265 6139ft 168kts
29-Oct-19 14:42 40.776069 -112.049380 306 7757ft 224kts
29-Oct-19 14:43 40.819270 -112.114109 342 10728ft 249kts
29-Oct-19 14:44 40.896314 -112.088437 17 12315ft 329kts
29-Oct-19 14:45 40.988550 -112.045116 17 14853ft 361kts
29-Oct-19 14:46 41.066885 -111.965419 62 17685ft 379kts
29-Oct-19 14:47 41.109530 -111.842258 65 20016ft 390kts
29-Oct-19 14:48 41.081512 -111.708537 137 22339ft 419kts
29-Oct-19 14:49 40.987656 -111.609826 141 23980ft 441kts
29-Oct-19 14:50 40.895791 -111.512872 142 25533ft 456kts
29-Oct-19 14:51 40.799007 -111.400679 123 27131ft 469kts
29-Oct-19 14:52 40.756648 -111.241121 104 28525ft 477kts
29-Oct-19 14:53 40.718833 -111.071773 105 29043ft 482kts
29-Oct-19 14:54 40.679812 -110.901320 107 29043ft 483kts
29-Oct-19 14:55 40.640383 -110.731270 107 29042ft 483kts
29-Oct-19 14:56 40.600955 -110.562095 107 29032ft 483kts
29-Oct-19 14:57 40.561151 -110.392468 107 29031ft 483kts
29-Oct-19 14:58 40.524230 -110.226765 104 29045ft 483kts
29-Oct-19 14:59 40.492709 -110.054631 104 29049ft 482kts
29-Oct-19 15:00 40.460294 -109.883526 104 29049ft 482kts
29-Oct-19 15:01 40.427385 -109.712058 104 29049ft 482kts
29-Oct-19 15:02 40.394280 -109.541059 104 29049ft 482kts
29-Oct-19 15:03 40.360933 -109.370308 104 29049ft 482kts
29-Oct-19 15:04 40.328335 -109.204358 105 29049ft 482kts
29-Oct-19 15:05 40.294565 -109.033918 106 29049ft 483kts
29-Oct-19 15:06 40.260303 -108.862916 106 29049ft 484kts
29-Oct-19 15:07 40.225779 -108.692059 106 29049ft 484kts
29-Oct-19 15:08 40.191125 -108.521874 106 29012ft 484kts
29-Oct-19 15:09 40.156120 -108.351315 106 28960ft 483kts
29-Oct-19 15:10 40.123913 -108.195356 107 28951ft 483kts
29-Oct-19 15:11 40.088314 -108.024894 107 28951ft 483kts
29-Oct-19 15:12 40.033530 -107.866845 132 28955ft 476kts
29-Oct-19 15:13 39.951726 -107.732625 132 28897ft 452kts
29-Oct-19 15:14 39.878526 -107.612150 131 26832ft 448kts
29-Oct-19 15:15 39.802703 -107.487700 130 24081ft 429kts
29-Oct-19 15:16 39.730714 -107.369432 129 20900ft 405kts
29-Oct-19 15:17 39.664722 -107.261185 129 18874ft 387kts
29-Oct-19 15:18 39.606128 -107.165602 129 18297ft 298kts
29-Oct-19 15:19 39.557183 -107.085996 128 16650ft 273kts
29-Oct-19 15:20 39.511669 -107.012962 128 14981ft 255kts
29-Oct-19 15:21 39.456676 -106.974593 158 13966ft 175kts
29-Oct-19 15:22 39.438206 -106.927480 82 13518ft 171kts
29-Oct-19 15:23 39.416483 -106.890696 184 13067ft 173kts
29-Oct-19 15:24 39.368970 -106.889200 170 12823ft 168kts
29-Oct-19 15:25 39.324717 -106.883166 172 11831ft 166kts
29-Oct-19 15:26 39.276810 -106.877647 175 9778ft 181kts
29-Oct-19 15:27 39.224305 -106.874845 196 10593ft 204kts
29-Oct-19 15:28 39.219825 -106.925693 326 13833ft 181kts
29-Oct-19 15:29 39.259002 -106.977738 314 13993ft 223kts
29-Oct-19 15:30 39.301411 -107.036627 313 13987ft 223kts
29-Oct-19 15:31 39.343709 -107.095667 312 13985ft 223kts
29-Oct-19 15:32 39.384101 -107.157407 289 13990ft 244kts
29-Oct-19 15:33 39.420409 -107.222238 356 13992ft 229kts
29-Oct-19 15:34 39.484238 -107.221700 0 14017ft 229kts
29-Oct-19 15:35 39.518348 -107.159052 78 14041ft 241kts
29-Oct-19 15:36 39.529024 -107.073275 78 14064ft 239kts
29-Oct-19 15:37 39.539493 -106.988424 77 14048ft 236kts
29-Oct-19 15:38 39.522284 -106.915273 161 14050ft 246kts
29-Oct-19 15:39 39.454664 -106.899494 176 13839ft 246kts
29-Oct-19 15:40 39.414461 -106.953203 215 13181ft 206kts
29-Oct-19 15:41 39.367323 -106.938649 157 12546ft 171kts
29-Oct-19 15:42 39.322765 -106.916984 157 11752ft 169kts
29-Oct-19 15:43 39.278257 -106.894713 153 9873ft 170kts
29-Oct-19 15:44 39.233052 -106.873438 161 7863ft 179kts
29-Oct-19 15:45 39.214439 -106.863258 311 7782ft 0kts

Navigation Log

Ident Type
Flight plan parsing failed, navigation log unavailable